createdAt,value
2019-03-25T00:00:50.342Z,25.30
2019-03-25T00:03:21.516Z,25.70
2019-03-25T00:05:52.610Z,25.70
2019-03-25T00:08:23.753Z,25.00
2019-03-25T00:10:54.759Z,25.00
2019-03-25T00:13:25.907Z,25.88
2019-03-25T00:15:57.151Z,26.60
2019-03-25T00:18:29.248Z,26.05
2019-03-25T00:21:00.291Z,26.60
2019-03-25T00:23:31.326Z,26.37
2019-03-25T00:26:02.401Z,28.20
2019-03-25T00:28:33.465Z,26.68
2019-03-25T00:31:04.467Z,27.70
2019-03-25T00:33:35.520Z,30.30
2019-03-25T00:36:06.539Z,31.30
2019-03-25T00:38:37.562Z,31.62
2019-03-25T00:41:08.677Z,31.62
2019-03-25T00:43:39.780Z,32.00
2019-03-25T00:46:10.908Z,31.90
2019-03-25T00:48:42.016Z,35.43
2019-03-25T00:51:13.252Z,34.20
2019-03-25T00:53:44.399Z,38.48
2019-03-25T00:56:15.543Z,37.05
2019-03-25T00:58:46.693Z,36.20
2019-03-25T01:01:17.950Z,36.83
2019-03-25T01:03:49.021Z,34.03
2019-03-25T01:06:20.258Z,36.58
2019-03-25T01:08:51.426Z,36.98
2019-03-25T01:11:22.556Z,37.88
2019-03-25T01:13:53.981Z,38.40
2019-03-25T01:16:25.051Z,40.73
2019-03-25T01:18:56.356Z,39.98
2019-03-25T01:21:27.434Z,40.80
2019-03-25T01:23:58.487Z,41.30
2019-03-25T01:26:29.599Z,43.58
2019-03-25T01:29:00.891Z,56.37
2019-03-25T01:31:31.981Z,59.95
2019-03-25T01:34:03.072Z,55.30
2019-03-25T01:36:34.220Z,61.10
2019-03-25T01:39:06.329Z,49.55
2019-03-25T01:41:37.414Z,52.03
2019-03-25T01:44:08.468Z,49.85
2019-03-25T01:46:39.495Z,50.65
2019-03-25T01:49:10.537Z,49.98
2019-03-25T01:51:41.507Z,46.25
2019-03-25T01:54:13.557Z,50.10
2019-03-25T01:56:44.663Z,47.50
2019-03-25T01:59:15.725Z,48.58
2019-03-25T02:01:46.765Z,50.60
2019-03-25T02:04:17.912Z,52.00
2019-03-25T02:06:48.890Z,50.30
2019-03-25T02:09:19.992Z,57.62
2019-03-25T02:11:51.861Z,53.23
2019-03-25T02:14:22.909Z,53.90
2019-03-25T02:16:54.042Z,51.75
2019-03-25T02:19:25.354Z,51.80
2019-03-25T02:21:56.296Z,50.43
2019-03-25T02:24:27.489Z,51.80
2019-03-25T02:26:58.629Z,49.15
2019-03-25T02:29:29.588Z,45.55
2019-03-25T02:32:00.726Z,43.70
2019-03-25T02:34:31.696Z,44.53
2019-03-25T02:37:02.798Z,44.90
2019-03-25T02:39:33.993Z,45.48
2019-03-25T02:42:04.978Z,44.85
2019-03-25T02:44:36.013Z,44.83
2019-03-25T02:47:07.070Z,46.65
2019-03-25T02:49:38.096Z,45.38
2019-03-25T02:52:09.136Z,44.98
2019-03-25T02:54:40.104Z,46.73
2019-03-25T02:57:11.083Z,45.15
2019-03-25T02:59:42.053Z,48.45
2019-03-25T03:02:13.204Z,48.90
2019-03-25T03:04:44.245Z,48.90
2019-03-25T03:07:15.380Z,49.55
2019-03-25T03:09:46.375Z,52.73
2019-03-25T03:12:17.494Z,55.95
2019-03-25T03:14:48.514Z,54.93
2019-03-25T03:17:19.569Z,52.03
2019-03-25T03:19:50.722Z,58.70
2019-03-25T03:22:21.687Z,57.73
2019-03-25T03:24:52.783Z,58.17
2019-03-25T03:27:23.997Z,60.35
2019-03-25T03:29:55.074Z,59.13
2019-03-25T03:32:27.120Z,57.67
2019-03-25T03:34:58.204Z,55.90
2019-03-25T03:37:29.218Z,56.65
2019-03-25T03:40:00.657Z,55.50
2019-03-25T03:42:32.959Z,57.90
2019-03-25T03:45:06.155Z,58.90
2019-03-25T03:47:37.126Z,61.15
2019-03-25T03:50:08.291Z,64.25
2019-03-25T03:52:39.377Z,60.50
2019-03-25T03:55:10.395Z,60.38
2019-03-25T03:57:41.446Z,62.93
2019-03-25T04:00:15.817Z,64.92
2019-03-25T04:02:46.925Z,60.23
2019-03-25T04:05:17.898Z,56.73
2019-03-25T04:07:49.466Z,53.23
2019-03-25T04:10:21.585Z,55.73
2019-03-25T04:12:52.605Z,56.25
2019-03-25T04:15:28.483Z,51.83
2019-03-25T04:17:59.602Z,50.08
2019-03-25T04:20:30.596Z,46.83
2019-03-25T04:23:01.586Z,44.60
2019-03-25T04:25:32.659Z,47.40
2019-03-25T04:28:03.670Z,48.28
2019-03-25T04:30:34.729Z,48.75
2019-03-25T04:33:05.954Z,49.42
2019-03-25T04:35:37.012Z,47.78
2019-03-25T04:38:08.146Z,48.78
2019-03-25T04:40:40.332Z,50.67
2019-03-25T04:43:11.358Z,49.35
2019-03-25T04:45:42.399Z,48.78
2019-03-25T04:48:13.362Z,46.35
2019-03-25T04:50:44.469Z,44.05
2019-03-25T04:53:15.443Z,45.15
2019-03-25T04:55:46.551Z,45.00
2019-03-25T04:58:17.591Z,43.58
2019-03-25T05:00:48.639Z,42.80
2019-03-25T05:03:19.675Z,42.78
2019-03-25T05:05:50.760Z,41.20
2019-03-25T05:08:21.818Z,60.00
2019-03-25T05:10:53.017Z,63.65
2019-03-25T05:13:24.168Z,66.05
2019-03-25T05:15:55.201Z,65.08
2019-03-25T05:18:26.239Z,65.42
2019-03-25T05:20:57.294Z,63.75
2019-03-25T05:23:28.325Z,61.95
2019-03-25T05:25:59.431Z,57.45
2019-03-25T05:28:30.592Z,54.03
2019-03-25T05:31:01.583Z,56.90
2019-03-25T05:33:32.608Z,58.65
2019-03-25T05:36:03.632Z,60.30
2019-03-25T05:38:34.690Z,56.35
2019-03-25T05:41:05.667Z,48.75
2019-03-25T05:43:36.771Z,44.38
2019-03-25T05:46:07.982Z,39.23
2019-03-25T05:48:39.149Z,39.25
2019-03-25T05:51:10.291Z,37.10
2019-03-25T05:53:41.337Z,35.88
2019-03-25T05:56:12.381Z,36.25
2019-03-25T05:58:43.349Z,37.10
2019-03-25T06:01:14.503Z,36.20
2019-03-25T06:03:45.491Z,35.38
2019-03-25T06:06:16.551Z,35.33
2019-03-25T06:08:47.564Z,33.83
2019-03-25T06:11:18.624Z,34.85
2019-03-25T06:13:49.659Z,35.38
2019-03-25T06:16:20.724Z,34.70
2019-03-25T06:18:51.862Z,36.83
2019-03-25T06:21:23.001Z,36.65
2019-03-25T06:23:54.162Z,36.35
2019-03-25T06:26:25.306Z,37.60
2019-03-25T06:28:56.435Z,41.20
2019-03-25T06:31:27.488Z,41.00
2019-03-25T06:33:58.623Z,39.53
2019-03-25T06:36:29.805Z,38.98
2019-03-25T06:39:01.013Z,39.95
2019-03-25T06:41:32.148Z,39.95
2019-03-25T06:44:03.286Z,38.50
2019-03-25T06:46:34.464Z,39.73
2019-03-25T06:49:05.671Z,40.00
2019-03-25T06:51:36.718Z,40.48
2019-03-25T06:54:07.857Z,40.03
2019-03-25T06:56:38.957Z,41.73
2019-03-25T06:59:09.945Z,42.70
2019-03-25T07:01:41.106Z,44.83
2019-03-25T07:04:12.266Z,45.35
2019-03-25T07:06:43.469Z,47.15
2019-03-25T07:09:14.448Z,44.35
2019-03-25T07:11:45.524Z,43.25
2019-03-25T07:14:16.604Z,40.20
2019-03-25T07:16:47.827Z,41.20
2019-03-25T07:19:18.974Z,39.70
2019-03-25T07:21:50.057Z,37.03
2019-03-25T07:24:21.268Z,34.70
2019-03-25T07:26:52.428Z,36.93
2019-03-25T07:29:23.595Z,33.92
2019-03-25T07:31:54.828Z,33.73
2019-03-25T07:34:25.919Z,32.25
2019-03-25T07:36:57.117Z,31.30
2019-03-25T07:39:28.234Z,29.00
2019-03-25T07:41:59.253Z,29.95
2019-03-25T07:44:30.346Z,29.37
2019-03-25T07:47:01.490Z,28.42
2019-03-25T07:49:32.707Z,31.30
2019-03-25T07:52:03.701Z,28.38
2019-03-25T07:54:34.732Z,27.58
2019-03-25T07:57:05.760Z,29.52
2019-03-25T07:59:36.813Z,26.82
2019-03-25T08:02:07.808Z,24.23
2019-03-25T08:04:38.904Z,22.52
2019-03-25T08:07:10.213Z,22.90
2019-03-25T08:09:41.401Z,21.07
2019-03-25T08:12:12.658Z,19.73
2019-03-25T08:14:43.930Z,17.40
2019-03-25T08:17:15.021Z,17.27
2019-03-25T08:19:46.251Z,16.95
2019-03-25T08:22:17.365Z,15.85
2019-03-25T08:24:48.450Z,15.85
2019-03-25T08:27:20.403Z,14.50
2019-03-25T08:29:51.458Z,15.43
2019-03-25T08:32:22.532Z,14.80
2019-03-25T08:34:54.201Z,14.68
2019-03-25T08:37:25.416Z,14.93
2019-03-25T08:39:56.618Z,11.80
2019-03-25T08:42:27.730Z,12.90
2019-03-25T08:45:02.291Z,11.33
2019-03-25T08:47:33.627Z,10.48
2019-03-25T08:50:07.008Z,9.90
2019-03-25T08:52:38.149Z,11.25
2019-03-25T08:55:10.194Z,8.68
2019-03-25T08:57:41.481Z,11.20
2019-03-25T09:00:12.808Z,10.20
2019-03-25T09:02:43.890Z,8.65
2019-03-25T09:05:15.105Z,9.93
2019-03-25T09:07:46.135Z,9.33
2019-03-25T09:10:17.178Z,10.00
2019-03-25T09:12:48.322Z,10.05
2019-03-25T09:15:19.451Z,9.60
2019-03-25T09:17:50.608Z,9.93
2019-03-25T09:20:23.447Z,10.45
2019-03-25T09:22:54.681Z,11.68
2019-03-25T09:25:25.824Z,14.70
2019-03-25T09:27:57.972Z,10.58
2019-03-25T09:30:51.900Z,11.78
2019-03-25T09:33:23.050Z,10.65
2019-03-25T09:35:54.325Z,13.72
2019-03-25T09:38:25.567Z,10.40
2019-03-25T09:40:56.723Z,8.80
2019-03-25T09:43:27.816Z,8.53
2019-03-25T09:45:58.857Z,9.40
2019-03-25T09:48:29.927Z,9.38
2019-03-25T09:51:01.021Z,8.93
2019-03-25T09:53:32.283Z,9.40
2019-03-25T09:56:03.427Z,10.65
2019-03-25T09:58:36.468Z,11.75
2019-03-25T10:01:07.194Z,13.18
2019-03-25T10:03:38.420Z,11.83
2019-03-25T10:06:09.611Z,10.60
2019-03-25T10:08:41.875Z,8.73
2019-03-25T10:11:12.978Z,9.78
2019-03-25T10:13:44.044Z,7.58
2019-03-25T10:16:15.328Z,8.70
2019-03-25T10:18:46.554Z,8.93
2019-03-25T10:21:17.629Z,19.07
2019-03-25T10:23:49.044Z,15.08
2019-03-25T10:26:20.233Z,9.43
2019-03-25T10:28:51.376Z,9.45
2019-03-25T10:31:22.509Z,24.87
2019-03-25T10:33:53.750Z,9.23
2019-03-25T10:36:24.870Z,19.65
2019-03-25T10:38:56.020Z,13.62
2019-03-25T10:41:27.221Z,9.85
2019-03-25T10:43:58.333Z,11.15
2019-03-25T10:46:29.388Z,11.48
2019-03-25T10:49:00.522Z,11.00
2019-03-25T10:51:31.814Z,9.50
2019-03-25T10:54:03.205Z,8.38
2019-03-25T10:56:34.243Z,10.15
2019-03-25T10:59:05.396Z,8.18
2019-03-25T11:01:37.097Z,8.13
2019-03-25T11:04:08.412Z,8.78
2019-03-25T11:06:39.636Z,8.80
2019-03-25T11:09:10.792Z,8.05
2019-03-25T11:11:45.402Z,9.08
2019-03-25T11:14:16.672Z,7.55
2019-03-25T11:16:48.046Z,9.10
2019-03-25T11:19:19.527Z,9.53
2019-03-25T11:21:51.027Z,9.05
2019-03-25T11:24:22.602Z,7.53
2019-03-25T11:26:53.720Z,7.40
2019-03-25T11:29:25.121Z,7.50
2019-03-25T11:31:56.371Z,7.62
2019-03-25T11:34:27.594Z,7.28
2019-03-25T11:36:58.581Z,7.83
2019-03-25T11:39:29.747Z,7.85
2019-03-25T11:42:00.874Z,7.95
2019-03-25T11:44:32.057Z,7.60
2019-03-25T11:47:04.844Z,8.35
2019-03-25T11:49:35.984Z,7.40
2019-03-25T11:52:09.886Z,7.60
2019-03-25T11:54:41.275Z,6.53
2019-03-25T11:57:12.479Z,6.65
2019-03-25T11:59:43.610Z,6.62
2019-03-25T12:02:17.829Z,6.85
2019-03-25T12:04:47.536Z,6.67
2019-03-25T12:07:22.535Z,7.17
2019-03-25T12:09:54.547Z,7.50
2019-03-25T12:12:25.555Z,7.20
2019-03-25T12:14:56.634Z,7.28
2019-03-25T12:17:27.900Z,7.45
2019-03-25T12:19:58.992Z,8.25
2019-03-25T12:22:30.058Z,6.92
2019-03-25T12:25:01.139Z,7.08
2019-03-25T12:27:32.671Z,6.60
2019-03-25T12:30:08.971Z,7.75
2019-03-25T12:32:39.967Z,7.50
2019-03-25T12:35:11.198Z,6.78
2019-03-25T12:37:42.578Z,7.42
2019-03-25T12:40:13.945Z,6.78
2019-03-25T12:42:45.294Z,7.72
2019-03-25T12:45:16.620Z,7.03
2019-03-25T12:47:47.861Z,5.90
2019-03-25T12:50:19.098Z,6.90
2019-03-25T12:52:51.326Z,7.33
2019-03-25T12:55:22.521Z,7.45
2019-03-25T12:57:53.640Z,7.67
2019-03-25T13:00:38.886Z,7.80
2019-03-25T13:03:10.081Z,7.85
2019-03-25T13:05:41.321Z,8.10
2019-03-25T13:08:12.399Z,7.58
2019-03-25T13:10:43.643Z,8.88
2019-03-25T13:13:15.040Z,8.08
2019-03-25T13:15:46.106Z,8.50
2019-03-25T13:18:17.324Z,9.45
2019-03-25T13:20:48.602Z,9.68
2019-03-25T13:23:19.673Z,8.60
2019-03-25T13:25:55.297Z,9.23
2019-03-25T13:28:26.415Z,9.30
2019-03-25T13:30:57.627Z,9.58
2019-03-25T13:33:30.860Z,9.63
2019-03-25T13:36:01.953Z,8.18
2019-03-25T13:38:33.043Z,8.50
2019-03-25T13:41:04.194Z,7.95
2019-03-25T13:43:35.229Z,7.25
2019-03-25T13:46:06.190Z,6.78
2019-03-25T13:48:37.409Z,7.33
2019-03-25T13:51:08.542Z,7.87
2019-03-25T13:53:39.599Z,6.90
2019-03-25T13:56:10.583Z,6.83
2019-03-25T13:58:41.752Z,6.83
2019-03-25T14:01:12.897Z,7.17
2019-03-25T14:03:44.020Z,8.75
2019-03-25T14:06:15.134Z,10.08
2019-03-25T14:08:46.109Z,9.78
2019-03-25T14:11:17.350Z,11.00
2019-03-25T14:13:49.485Z,13.78
2019-03-25T14:16:20.822Z,13.53
2019-03-25T14:18:52.029Z,14.83
2019-03-25T14:21:23.106Z,14.47
2019-03-25T14:23:54.252Z,13.88
2019-03-25T14:26:25.214Z,11.65
2019-03-25T14:28:56.231Z,11.93
2019-03-25T14:31:27.835Z,11.10
2019-03-25T14:33:58.835Z,11.85
2019-03-25T14:36:29.791Z,11.28
2019-03-25T14:39:01.071Z,11.73
2019-03-25T14:41:32.942Z,11.25
2019-03-25T14:44:04.016Z,11.12
2019-03-25T14:46:35.072Z,10.80
2019-03-25T14:49:06.214Z,10.20
2019-03-25T14:51:37.345Z,10.63
2019-03-25T14:54:08.393Z,14.50
2019-03-25T14:56:39.384Z,13.93
2019-03-25T14:59:10.469Z,15.45
2019-03-25T15:01:41.503Z,13.15
2019-03-25T15:04:12.470Z,12.03
2019-03-25T15:06:43.808Z,11.88
2019-03-25T15:09:14.845Z,10.88
2019-03-25T15:11:45.881Z,13.35
2019-03-25T15:14:17.108Z,10.60
2019-03-25T15:16:48.240Z,13.22
2019-03-25T15:19:19.331Z,12.30
2019-03-25T15:21:51.692Z,11.10
2019-03-25T15:24:22.844Z,11.65
2019-03-25T15:26:54.062Z,11.38
2019-03-25T15:29:25.146Z,12.90
2019-03-25T15:31:56.307Z,12.03
2019-03-25T15:34:27.320Z,13.15
2019-03-25T15:36:58.373Z,13.10
2019-03-25T15:39:29.523Z,17.12
2019-03-25T15:42:00.672Z,14.30
2019-03-25T15:44:32.207Z,15.18
2019-03-25T15:47:03.714Z,22.85
2019-03-25T15:49:35.755Z,29.40
2019-03-25T15:52:06.798Z,19.05
2019-03-25T15:54:37.914Z,19.65
2019-03-25T15:57:08.944Z,15.93
2019-03-25T15:59:40.151Z,14.20
2019-03-25T16:02:11.460Z,22.55
2019-03-25T16:04:42.572Z,14.87
2019-03-25T16:07:14.812Z,15.43
2019-03-25T16:09:46.311Z,15.20
2019-03-25T16:12:17.642Z,14.87
2019-03-25T16:14:48.683Z,15.15
2019-03-25T16:17:19.685Z,13.62
2019-03-25T16:19:51.088Z,12.55
2019-03-25T16:22:22.276Z,13.95
2019-03-25T16:24:53.262Z,14.58
2019-03-25T16:27:25.889Z,13.40
2019-03-25T16:29:56.992Z,13.57
2019-03-25T16:32:29.054Z,13.15
2019-03-25T16:35:00.333Z,13.25
2019-03-25T16:37:31.360Z,13.25
2019-03-25T16:40:02.435Z,14.28
2019-03-25T16:42:33.571Z,14.05
2019-03-25T16:45:05.243Z,14.40
2019-03-25T16:47:36.339Z,15.08
2019-03-25T16:50:07.747Z,15.78
2019-03-25T16:52:38.759Z,17.55
2019-03-25T16:55:09.829Z,15.72
2019-03-25T16:57:40.854Z,16.07
2019-03-25T17:00:12.010Z,16.52
2019-03-25T17:02:43.264Z,13.55
2019-03-25T17:05:14.368Z,11.83
2019-03-25T17:07:45.553Z,9.23
2019-03-25T17:10:16.495Z,10.10
2019-03-25T17:12:47.751Z,12.35
2019-03-25T17:15:18.940Z,12.73
2019-03-25T17:17:50.216Z,14.35
2019-03-25T17:20:21.380Z,13.98
2019-03-25T17:22:52.518Z,14.18
2019-03-25T17:25:23.586Z,14.28
2019-03-25T17:27:54.680Z,12.43
2019-03-25T17:30:25.969Z,16.82
2019-03-25T17:32:57.088Z,13.35
2019-03-25T17:35:28.321Z,13.08
2019-03-25T17:37:59.519Z,12.82
2019-03-25T17:40:30.579Z,18.52
2019-03-25T17:43:01.772Z,15.23
2019-03-25T17:45:32.830Z,13.45
2019-03-25T17:48:04.247Z,11.73
2019-03-25T17:50:35.290Z,14.20
2019-03-25T17:53:06.533Z,11.60
2019-03-25T17:55:37.614Z,16.87
2019-03-25T17:58:08.631Z,12.28
2019-03-25T18:00:51.933Z,11.00
2019-03-25T18:03:24.153Z,14.00
2019-03-25T18:05:55.191Z,16.00
2019-03-25T18:08:26.343Z,11.25
2019-03-25T18:10:57.421Z,11.48
2019-03-25T18:13:28.428Z,20.68
2019-03-25T18:15:59.442Z,63.70
2019-03-25T18:18:30.584Z,71.53
2019-03-25T18:21:01.652Z,18.85
2019-03-25T18:23:32.641Z,74.32
2019-03-25T18:26:03.739Z,28.57
2019-03-25T18:28:34.777Z,78.00
2019-03-25T18:31:05.922Z,29.40
2019-03-25T18:33:37.513Z,35.38
2019-03-25T18:36:10.288Z,36.10
2019-03-25T18:38:41.332Z,35.03
2019-03-25T18:41:12.441Z,41.05
2019-03-25T18:43:43.472Z,26.80
2019-03-25T18:46:14.702Z,28.60
2019-03-25T18:48:45.862Z,18.05
2019-03-25T18:51:16.949Z,17.10
2019-03-25T18:53:47.964Z,12.13
2019-03-25T18:56:19.143Z,12.78
2019-03-25T18:58:50.361Z,12.07
2019-03-25T19:01:21.821Z,13.15
2019-03-25T19:03:52.997Z,12.33
2019-03-25T19:06:24.221Z,17.70
2019-03-25T19:08:55.353Z,11.95
2019-03-25T19:11:31.035Z,12.47
2019-03-25T19:13:59.154Z,15.50
2019-03-25T19:16:30.394Z,12.95
2019-03-25T19:19:01.790Z,11.80
2019-03-25T19:21:33.047Z,11.95
2019-03-25T19:24:04.247Z,12.30
2019-03-25T19:26:35.309Z,12.82
2019-03-25T19:29:06.350Z,14.38
2019-03-25T19:31:37.411Z,16.02
2019-03-25T19:34:08.508Z,16.73
2019-03-25T19:36:39.670Z,18.98
2019-03-25T19:39:10.853Z,24.90
2019-03-25T19:41:41.986Z,21.05
2019-03-25T19:44:13.020Z,23.60
2019-03-25T19:46:44.488Z,24.43
2019-03-25T19:49:15.973Z,24.98
2019-03-25T19:51:48.300Z,19.67
2019-03-25T19:54:19.521Z,17.77
2019-03-25T19:56:50.560Z,16.20
2019-03-25T19:59:21.663Z,18.62
2019-03-25T20:01:52.982Z,17.95
2019-03-25T20:04:24.193Z,14.93
2019-03-25T20:06:55.250Z,14.05
2019-03-25T20:09:26.325Z,14.20
2019-03-25T20:11:57.689Z,14.68
2019-03-25T20:14:30.055Z,17.05
2019-03-25T20:17:01.271Z,14.73
2019-03-25T20:19:32.502Z,15.10
2019-03-25T20:22:04.607Z,14.70
2019-03-25T20:24:35.681Z,14.20
2019-03-25T20:27:06.761Z,14.00
2019-03-25T20:29:37.868Z,13.53
2019-03-25T20:32:09.195Z,14.78
2019-03-25T20:34:40.450Z,14.68
2019-03-25T20:37:11.652Z,13.30
2019-03-25T20:39:43.059Z,14.18
2019-03-25T20:42:14.590Z,14.28
2019-03-25T20:44:45.660Z,14.65
2019-03-25T20:47:17.196Z,15.38
2019-03-25T20:49:48.385Z,14.58
2019-03-25T20:52:19.892Z,15.80
2019-03-25T20:54:51.189Z,15.98
2019-03-25T20:57:22.422Z,16.87
2019-03-25T20:59:53.626Z,16.48
2019-03-25T21:02:24.826Z,17.57
2019-03-25T21:04:56.021Z,16.50
2019-03-25T21:07:27.096Z,15.78
2019-03-25T21:09:58.148Z,16.12
2019-03-25T21:12:29.270Z,18.70
2019-03-25T21:15:00.358Z,16.73
2019-03-25T21:17:31.460Z,18.50
2019-03-25T21:20:02.587Z,14.28
2019-03-25T21:22:33.844Z,15.72
2019-03-25T21:25:06.497Z,19.42
2019-03-25T21:27:37.830Z,14.10
2019-03-25T21:30:09.015Z,11.40
2019-03-25T21:32:40.599Z,11.68
2019-03-25T21:35:11.837Z,10.40
2019-03-25T21:37:43.106Z,10.05
2019-03-25T21:40:14.349Z,16.77
2019-03-25T21:42:45.544Z,9.93
2019-03-25T21:45:16.575Z,17.50
2019-03-25T21:47:47.829Z,10.38
2019-03-25T21:50:18.913Z,7.25
2019-03-25T21:52:50.130Z,11.70
2019-03-25T21:55:21.351Z,7.83
2019-03-25T21:57:52.541Z,7.97
2019-03-25T22:00:23.770Z,8.53
2019-03-25T22:02:54.885Z,8.50
2019-03-25T22:05:26.044Z,6.45
2019-03-25T22:07:57.171Z,7.47
2019-03-25T22:10:28.325Z,6.25
2019-03-25T22:12:59.342Z,5.92
2019-03-25T22:15:30.555Z,6.20
2019-03-25T22:18:01.629Z,6.78
2019-03-25T22:20:32.623Z,7.22
2019-03-25T22:23:03.585Z,7.60
2019-03-25T22:25:34.592Z,6.15
2019-03-25T22:28:05.620Z,6.72
2019-03-25T22:30:36.601Z,6.08
2019-03-25T22:33:07.623Z,5.95
2019-03-25T22:35:38.656Z,5.55
2019-03-25T22:38:09.719Z,6.17
2019-03-25T22:40:40.873Z,5.60
2019-03-25T22:43:11.804Z,5.25
2019-03-25T22:45:42.733Z,5.95
2019-03-25T22:48:13.685Z,5.70
2019-03-25T22:50:46.362Z,5.73
2019-03-25T22:53:17.292Z,5.78
2019-03-25T22:56:33.834Z,5.67
2019-03-25T22:59:04.897Z,5.97
2019-03-25T23:01:35.887Z,5.47
2019-03-25T23:04:08.048Z,5.45
2019-03-25T23:06:39.090Z,5.55
2019-03-25T23:09:10.027Z,5.58
2019-03-25T23:11:40.960Z,5.60
2019-03-25T23:14:11.909Z,5.75
2019-03-25T23:16:42.838Z,5.67
2019-03-25T23:19:13.845Z,5.60
2019-03-25T23:21:44.923Z,5.28
2019-03-25T23:24:15.968Z,5.25
2019-03-25T23:26:46.958Z,5.17
2019-03-25T23:29:17.957Z,5.47
2019-03-25T23:31:49.579Z,5.58
2019-03-25T23:34:20.552Z,5.47
2019-03-25T23:36:51.585Z,5.42
2019-03-25T23:39:25.173Z,5.00
2019-03-25T23:41:56.354Z,4.83
2019-03-25T23:44:27.391Z,4.67
2019-03-25T23:46:58.422Z,5.08
2019-03-25T23:49:29.363Z,5.33
2019-03-25T23:52:00.396Z,4.75
2019-03-25T23:54:31.335Z,5.10
2019-03-25T23:57:02.278Z,4.42
2019-03-25T23:59:33.220Z,5.10
